Time;durP1;ratioP1;P1;durP2;ratioP2;P2;SDS_P1;SDS_P2;PMS_P1;PMS_P2;Temp;Humidity;BMP_temperature;BMP_pressure;BME280_temperature;BME280_humidity;BME280_pressure;Samples;Min_cycle;Max_cycle;Signal;HPM_P1;HPM_P2
2023/11/14 00:02:16;;;;;;;6.55;2.95;;;12.10;99.90;;;;;;5113621;27;20297;-81
2023/11/14 00:04:45;;;;;;;9.13;3.30;;;12.20;99.90;;;;;;5115167;28;20246;-78
2023/11/14 00:07:12;;;;;;;13.18;3.17;;;12.20;99.90;;;;;;5114639;28;20667;-80
2023/11/14 00:09:39;;;;;;;8.25;3.58;;;12.20;99.90;;;;;;5114328;28;20218;-81
2023/11/14 00:12:06;;;;;;;8.43;3.00;;;12.20;99.90;;;;;;5108942;28;20235;-81
2023/11/14 00:14:35;;;;;;;9.18;3.20;;;12.20;99.90;;;;;;5113120;28;20280;-79
2023/11/14 00:17:02;;;;;;;6.72;3.45;;;12.20;99.90;;;;;;5111016;28;20222;-81
2023/11/14 00:19:30;;;;;;;6.80;2.80;;;12.20;99.90;;;;;;5105653;28;20306;-79
2023/11/14 00:21:59;;;;;;;11.20;4.07;;;12.30;99.90;;;;;;5112838;28;20227;-79
2023/11/14 00:24:26;;;;;;;12.98;3.80;;;12.30;99.90;;;;;;5110774;28;20231;-79
2023/11/14 00:26:53;;;;;;;11.32;3.92;;;12.30;99.90;;;;;;5110708;28;20218;-79
2023/11/14 00:29:20;;;;;;;7.28;4.10;;;12.30;99.90;;;;;;5106563;28;20302;-81
2023/11/14 00:31:47;;;;;;;8.30;3.20;;;12.30;99.90;;;;;;5114200;28;20227;-81
2023/11/14 00:34:14;;;;;;;8.98;4.00;;;12.30;99.90;;;;;;5113462;28;20268;-81
2023/11/14 00:36:45;;;;;;;12.75;3.58;;;12.40;99.90;;;;;;5115833;28;20280;-81
2023/11/14 00:39:16;;;;;;;9.57;3.65;;;12.40;99.90;;;;;;5115644;28;20698;-79
2023/11/14 00:41:47;;;;;;;7.97;4.07;;;12.40;99.90;;;;;;5116180;28;20306;-80
2023/11/14 00:46:58;;;;;;;9.70;5.43;;;12.40;99.90;;;;;;5116987;28;20307;-79
2023/11/14 00:49:25;;;;;;;6.40;3.40;;;12.30;99.90;;;;;;5115251;28;20640;-79
2023/11/14 00:51:52;;;;;;;6.68;3.95;;;12.30;99.90;;;;;;5094186;28;20242;-81
2023/11/14 00:54:20;;;;;;;8.68;3.88;;;12.20;99.90;;;;;;5094954;28;20310;-79
2023/11/14 00:56:47;;;;;;;10.82;4.70;;;12.20;99.90;;;;;;5095507;28;20288;-79
2023/11/14 00:59:16;;;;;;;12.00;4.57;;;12.20;99.90;;;;;;5093460;28;20219;-79
2023/11/14 01:01:44;;;;;;;12.10;4.90;;;12.20;99.90;;;;;;5095815;28;20231;-79
2023/11/14 01:04:12;;;;;;;7.65;3.63;;;12.20;99.90;;;;;;5095403;28;20219;-81
2023/11/14 01:06:39;;;;;;;4.00;2.50;;;12.10;99.90;;;;;;5095896;28;20532;-81
2023/11/14 01:09:08;;;;;;;4.72;3.47;;;12.10;99.90;;;;;;5094754;28;20255;-79
2023/11/14 01:11:37;;;;;;;4.75;3.13;;;12.10;99.90;;;;;;5095475;28;20219;-79
2023/11/14 01:14:04;;;;;;;7.80;3.53;;;12.20;99.90;;;;;;5094863;28;20262;-79
2023/11/14 01:16:30;;;;;;;6.50;3.42;;;12.20;99.90;;;;;;5095396;28;20223;-79
2023/11/14 01:18:57;;;;;;;8.18;3.25;;;12.10;99.90;;;;;;5095787;28;20227;-81
2023/11/14 01:21:25;;;;;;;8.13;2.80;;;12.10;99.90;;;;;;5095113;28;20279;-81
2023/11/14 01:23:52;;;;;;;8.45;3.40;;;12.10;99.90;;;;;;5095362;28;20306;-81
2023/11/14 01:26:19;;;;;;;10.25;3.72;;;12.10;99.90;;;;;;5095079;28;20695;-80
2023/11/14 01:28:47;;;;;;;12.00;3.00;;;12.00;99.90;;;;;;5095046;28;20293;-79
2023/11/14 01:31:21;;;;;;;7.95;2.90;;;12.00;99.90;;;;;;5094887;28;20227;-79
2023/11/14 01:33:48;;;;;;;9.40;2.95;;;12.00;99.90;;;;;;5095251;28;20223;-79
2023/11/14 01:36:15;;;;;;;9.20;4.20;;;12.00;99.90;;;;;;5094780;28;20227;-81
2023/11/14 01:38:42;;;;;;;10.45;3.28;;;11.90;99.90;;;;;;5095312;28;20687;-81
2023/11/14 01:41:09;;;;;;;11.23;2.72;;;11.90;99.90;;;;;;5094712;28;20223;-79
2023/11/14 01:43:42;;;;;;;6.18;3.03;;;11.90;99.90;;;;;;5095213;28;20262;-79
2023/11/14 01:46:12;;;;;;;10.20;3.58;;;11.90;99.90;;;;;;5094536;28;20223;-81
2023/11/14 01:48:39;;;;;;;7.90;2.50;;;11.90;99.90;;;;;;5094764;28;20276;-81
2023/11/14 01:51:13;;;;;;;10.73;3.33;;;11.90;99.90;;;;;;5094597;28;20215;-81
2023/11/14 01:53:41;;;;;;;8.60;2.75;;;11.90;99.90;;;;;;5094794;28;20687;-81
2023/11/14 01:56:11;;;;;;;13.57;3.38;;;11.90;99.90;;;;;;5094331;28;20280;-81
2023/11/14 01:58:38;;;;;;;7.28;2.70;;;11.90;99.90;;;;;;5095001;28;20317;-81
2023/11/14 02:01:06;;;;;;;7.65;3.03;;;11.90;99.90;;;;;;5094692;28;20223;-81
2023/11/14 02:03:34;;;;;;;7.28;2.90;;;11.90;99.90;;;;;;5094458;28;20628;-81
2023/11/14 02:06:03;;;;;;;14.05;4.15;;;11.90;99.90;;;;;;5094778;28;20247;-81
2023/11/14 02:08:32;;;;;;;8.98;3.05;;;11.90;99.90;;;;;;5094036;28;20300;-79
2023/11/14 02:10:59;;;;;;;9.32;3.90;;;11.90;99.90;;;;;;5094672;28;20220;-79
2023/11/14 02:13:26;;;;;;;9.70;3.75;;;11.90;99.90;;;;;;5093654;28;20227;-79
2023/11/14 02:15:53;;;;;;;9.90;4.40;;;11.90;99.90;;;;;;5093920;28;20231;-80
2023/11/14 02:18:20;;;;;;;8.90;3.35;;;11.90;99.90;;;;;;5094040;28;20251;-79
2023/11/14 02:20:49;;;;;;;8.65;3.90;;;11.90;99.90;;;;;;5094669;28;20231;-80
2023/11/14 02:23:18;;;;;;;9.40;4.55;;;11.90;99.90;;;;;;5093737;28;20255;-80
2023/11/14 02:25:47;;;;;;;12.68;3.83;;;12.00;99.90;;;;;;5094795;28;20223;-79
2023/11/14 02:28:15;;;;;;;8.65;4.15;;;12.00;99.90;;;;;;5093700;28;20223;-80
2023/11/14 02:30:42;;;;;;;7.35;3.10;;;12.00;99.90;;;;;;5094349;28;20229;-79
2023/11/14 02:33:09;;;;;;;11.90;4.25;;;12.00;99.90;;;;;;5094633;28;20232;-80
2023/11/14 02:35:36;;;;;;;11.55;4.40;;;12.00;99.90;;;;;;5094244;28;20250;-81
2023/11/14 02:38:03;;;;;;;13.77;4.30;;;11.90;99.90;;;;;;5094171;28;20353;-80
2023/11/14 02:40:31;;;;;;;9.07;4.07;;;11.90;99.90;;;;;;5093466;28;20280;-81
2023/11/14 02:43:00;;;;;;;9.77;4.07;;;12.00;99.90;;;;;;5093998;28;20235;-80
2023/11/14 02:45:27;;;;;;;13.52;4.55;;;12.00;99.90;;;;;;5093671;28;20623;-81
2023/11/14 02:47:54;;;;;;;10.43;4.80;;;12.00;99.90;;;;;;5094534;28;20233;-81
2023/11/14 02:50:39;;;;;;;11.23;4.85;;;12.00;99.90;;;;;;5093888;28;20228;-80
2023/11/14 02:53:06;;;;;;;11.52;3.70;;;11.90;99.90;;;;;;5094000;28;20326;-80
2023/11/14 02:55:33;;;;;;;14.85;3.42;;;12.00;99.90;;;;;;5093474;28;20239;-81
2023/11/14 02:58:02;;;;;;;11.73;4.55;;;11.90;99.90;;;;;;5093949;28;20302;-80
2023/11/14 03:00:29;;;;;;;9.85;6.25;;;12.00;99.90;;;;;;5092873;28;20725;-81
2023/11/14 03:02:56;;;;;;;10.52;4.93;;;12.00;99.90;;;;;;5093834;28;20675;-81
2023/11/14 03:05:24;;;;;;;8.23;4.55;;;12.00;99.90;;;;;;5093202;28;20238;-81
2023/11/14 03:07:51;;;;;;;13.15;6.22;;;12.10;99.90;;;;;;5093897;28;20855;-80
2023/11/14 03:10:18;;;;;;;10.57;4.20;;;12.10;99.90;;;;;;5092999;28;20280;-79
2023/11/14 03:12:45;;;;;;;11.57;4.55;;;12.10;99.90;;;;;;5094221;28;20235;-81
2023/11/14 03:15:13;;;;;;;8.88;3.60;;;12.10;99.90;;;;;;5093509;28;20635;-81
2023/11/14 03:17:40;;;;;;;11.45;3.45;;;12.10;99.90;;;;;;5093337;28;20231;-79
2023/11/14 03:20:09;;;;;;;9.45;3.60;;;12.10;99.90;;;;;;5093768;28;20668;-81
2023/11/14 03:22:35;;;;;;;12.27;3.75;;;12.00;99.90;;;;;;5092987;28;20237;-79
2023/11/14 03:25:03;;;;;;;13.93;3.75;;;12.00;99.90;;;;;;5093356;28;20684;-79
2023/11/14 03:27:30;;;;;;;9.45;4.60;;;12.10;99.90;;;;;;5092908;28;20230;-79
2023/11/14 03:29:57;;;;;;;15.63;4.22;;;12.10;99.90;;;;;;5094119;28;20622;-79
2023/11/14 03:32:31;;;;;;;17.45;3.40;;;12.20;99.90;;;;;;5093196;28;20296;-81
2023/11/14 03:34:58;;;;;;;10.40;4.18;;;12.20;99.90;;;;;;5093326;28;20755;-80
2023/11/14 03:37:26;;;;;;;12.20;4.28;;;12.20;99.90;;;;;;5093383;28;20223;-81
2023/11/14 03:39:53;;;;;;;15.38;3.45;;;12.20;99.90;;;;;;5093679;28;20672;-81
2023/11/14 03:42:21;;;;;;;13.02;3.65;;;12.20;99.90;;;;;;5093393;28;20251;-79
2023/11/14 03:44:48;;;;;;;11.60;3.83;;;12.20;99.90;;;;;;5093707;28;20557;-79
2023/11/14 03:47:15;;;;;;;8.40;3.75;;;12.20;99.90;;;;;;5093847;28;20310;-79
2023/11/14 03:49:43;;;;;;;10.45;3.72;;;12.10;99.90;;;;;;5093163;28;20231;-79
2023/11/14 03:52:10;;;;;;;6.80;3.60;;;12.10;99.90;;;;;;5093291;28;20280;-79
2023/11/14 03:54:37;;;;;;;10.48;3.42;;;12.00;99.90;;;;;;5092761;28;20227;-81
2023/11/14 03:57:05;;;;;;;11.27;3.38;;;11.90;99.90;;;;;;5093486;28;20223;-81
2023/11/14 03:59:32;;;;;;;10.25;4.25;;;11.90;99.90;;;;;;5092631;28;20222;-79
2023/11/14 04:01:59;;;;;;;9.35;3.17;;;11.80;99.90;;;;;;5093335;28;20233;-79
2023/11/14 04:04:26;;;;;;;14.43;4.68;;;11.80;99.90;;;;;;5092788;28;20229;-79
2023/11/14 04:06:55;;;;;;;9.70;2.90;;;11.80;99.90;;;;;;5093669;28;20250;-79
2023/11/14 04:09:22;;;;;;;9.98;3.13;;;11.80;99.90;;;;;;5093318;28;20639;-79
2023/11/14 04:11:50;;;;;;;7.15;2.65;;;11.80;99.90;;;;;;5093516;28;20249;-79
2023/11/14 04:14:18;;;;;;;20.05;4.20;;;11.80;99.90;;;;;;5096862;28;20232;-79
2023/11/14 04:16:45;;;;;;;9.60;3.40;;;11.80;99.90;;;;;;5096229;28;20234;-79
2023/11/14 04:19:12;;;;;;;8.88;3.40;;;11.80;99.90;;;;;;5096961;28;20230;-79
2023/11/14 04:21:39;;;;;;;13.57;3.30;;;11.80;99.90;;;;;;5096161;28;20215;-79
2023/11/14 04:24:08;;;;;;;9.32;3.00;;;11.80;99.90;;;;;;5096906;28;20274;-81
2023/11/14 04:26:35;;;;;;;11.85;4.13;;;11.80;99.90;;;;;;5096452;28;20219;-81
2023/11/14 04:29:11;;;;;;;7.68;2.72;;;11.80;99.90;;;;;;5096964;28;20230;-81
2023/11/14 04:31:38;;;;;;;11.80;3.45;;;11.80;99.90;;;;;;5096723;28;20604;-81
2023/11/14 04:34:06;;;;;;;10.95;3.30;;;11.80;99.90;;;;;;5096694;28;20276;-81
2023/11/14 04:36:34;;;;;;;9.45;3.80;;;11.80;99.90;;;;;;5095691;28;20224;-79
2023/11/14 04:39:01;;;;;;;12.10;3.10;;;11.80;99.90;;;;;;5096978;28;20222;-81
2023/11/14 04:41:29;;;;;;;11.27;3.42;;;11.80;99.90;;;;;;5096048;28;20707;-81
2023/11/14 04:43:56;;;;;;;12.95;3.35;;;11.80;99.90;;;;;;5096001;28;20234;-79
2023/11/14 04:46:23;;;;;;;7.32;2.90;;;11.90;99.90;;;;;;5096483;28;20261;-81
2023/11/14 04:48:50;;;;;;;15.32;4.35;;;11.90;99.90;;;;;;5094872;28;20593;-81
2023/11/14 04:51:21;;;;;;;6.35;3.20;;;11.90;99.90;;;;;;5096119;28;20725;-79
2023/11/14 04:53:48;;;;;;;8.65;2.95;;;11.90;99.90;;;;;;5095665;28;20219;-79
2023/11/14 04:56:16;;;;;;;15.45;3.03;;;11.90;99.90;;;;;;5095854;28;20280;-79
2023/11/14 04:58:44;;;;;;;10.20;2.83;;;11.90;99.90;;;;;;5095574;28;20231;-79
2023/11/14 05:01:13;;;;;;;11.50;3.85;;;11.90;99.90;;;;;;5096237;28;20219;-79
2023/11/14 05:03:40;;;;;;;13.45;3.97;;;11.90;99.90;;;;;;5095101;28;20227;-79
2023/11/14 05:06:07;;;;;;;12.40;3.05;;;11.90;99.90;;;;;;5096204;28;20641;-79
2023/11/14 05:08:33;;;;;;;17.77;3.95;;;12.00;99.90;;;;;;5095730;28;20708;-79
2023/11/14 05:11:00;;;;;;;8.83;3.17;;;12.00;99.90;;;;;;5096044;28;20302;-79
2023/11/14 05:13:27;;;;;;;8.70;2.72;;;12.00;99.90;;;;;;5095716;28;20544;-80
2023/11/14 05:15:55;;;;;;;10.15;2.97;;;12.00;99.90;;;;;;5096029;28;20311;-81
2023/11/14 05:18:22;;;;;;;7.82;3.28;;;12.10;99.90;;;;;;5095869;28;20326;-79
2023/11/14 05:20:49;;;;;;;9.07;3.28;;;12.10;99.90;;;;;;5094940;28;20255;-79
2023/11/14 05:23:17;;;;;;;10.38;3.22;;;12.10;99.90;;;;;;5095110;28;20234;-80
2023/11/14 05:25:44;;;;;;;11.25;3.13;;;12.00;99.90;;;;;;5094968;28;20222;-79
2023/11/14 05:28:11;;;;;;;8.52;3.20;;;12.00;99.90;;;;;;5096106;28;20242;-79
2023/11/14 05:30:38;;;;;;;8.95;4.00;;;12.10;99.90;;;;;;5095426;28;20241;-79
2023/11/14 05:33:06;;;;;;;10.68;3.22;;;12.10;99.90;;;;;;5095843;28;20231;-79
2023/11/14 05:35:33;;;;;;;11.93;2.80;;;12.10;99.90;;;;;;5095143;28;20619;-80
2023/11/14 05:38:00;;;;;;;6.65;2.60;;;12.20;99.90;;;;;;5095583;28;20265;-79
2023/11/14 05:40:27;;;;;;;8.30;2.83;;;12.20;99.90;;;;;;5095533;28;20223;-79
2023/11/14 05:42:54;;;;;;;9.25;3.60;;;12.20;99.90;;;;;;5094946;28;20323;-81
2023/11/14 05:45:21;;;;;;;8.77;3.35;;;12.20;99.90;;;;;;5094782;28;20712;-80
2023/11/14 05:47:49;;;;;;;6.97;3.13;;;12.20;99.90;;;;;;5094821;28;20262;-81
2023/11/14 05:50:17;;;;;;;11.27;3.65;;;12.30;99.90;;;;;;5095058;28;20319;-81
2023/11/14 05:52:44;;;;;;;10.07;4.53;;;12.30;99.90;;;;;;5094685;28;20223;-80
2023/11/14 05:55:11;;;;;;;13.73;3.90;;;12.40;99.90;;;;;;5095269;28;20250;-80
2023/11/14 05:57:39;;;;;;;9.15;2.47;;;12.40;99.90;;;;;;5094977;28;20215;-80
2023/11/14 06:00:07;;;;;;;10.45;4.55;;;12.50;99.90;;;;;;5095040;28;20219;-81
2023/11/14 06:02:37;;;;;;;8.95;3.05;;;12.50;99.90;;;;;;5094504;28;20292;-80
2023/11/14 06:05:04;;;;;;;13.48;3.00;;;12.50;99.90;;;;;;5094792;28;20230;-81
2023/11/14 06:07:33;;;;;;;7.20;3.58;;;12.60;99.90;;;;;;5095260;28;20310;-81
2023/11/14 06:10:00;;;;;;;17.70;5.50;;;12.60;99.90;;;;;;5093830;28;20226;-81
2023/11/14 06:12:27;;;;;;;10.20;5.03;;;12.60;99.90;;;;;;5094654;28;20916;-80
2023/11/14 06:14:54;;;;;;;14.88;6.20;;;12.60;99.90;;;;;;5094410;28;20465;-81
2023/11/14 06:17:21;;;;;;;14.27;6.30;;;12.60;99.90;;;;;;5094248;28;20227;-79
2023/11/14 06:19:48;;;;;;;11.13;4.70;;;12.60;99.90;;;;;;5093568;28;20223;-81
2023/11/14 06:22:15;;;;;;;8.05;3.15;;;12.60;99.90;;;;;;5094729;28;20482;-81
2023/11/14 06:24:43;;;;;;;8.15;2.95;;;12.70;99.90;;;;;;5094120;28;20242;-81
2023/11/14 06:27:10;;;;;;;8.20;2.97;;;12.70;99.90;;;;;;5094729;28;20243;-80
2023/11/14 06:29:37;;;;;;;7.93;3.30;;;12.70;99.90;;;;;;5093916;28;20527;-79
2023/11/14 06:32:04;;;;;;;13.05;2.95;;;12.70;99.90;;;;;;5094358;28;20301;-80
2023/11/14 06:34:31;;;;;;;10.45;3.28;;;12.70;99.90;;;;;;5094651;28;20245;-79
2023/11/14 06:36:58;;;;;;;12.32;3.70;;;12.70;99.90;;;;;;5093217;28;20582;-80
2023/11/14 06:39:26;;;;;;;9.95;2.78;;;12.70;99.90;;;;;;5092220;28;20683;-79
2023/11/14 06:41:54;;;;;;;8.90;4.55;;;12.60;99.90;;;;;;5094677;28;20314;-80
2023/11/14 06:44:21;;;;;;;6.97;2.75;;;12.60;99.90;;;;;;5094115;28;20306;-80
2023/11/14 06:46:48;;;;;;;9.85;2.95;;;12.70;99.90;;;;;;5094847;28;20223;-79
2023/11/14 06:49:15;;;;;;;10.05;3.30;;;12.70;99.90;;;;;;5094247;28;20242;-79
2023/11/14 06:51:43;;;;;;;8.52;3.95;;;12.70;99.90;;;;;;5093967;28;20752;-80
2023/11/14 06:54:11;;;;;;;19.92;8.73;;;12.70;99.90;;;;;;5094107;28;20231;-79
2023/11/14 06:56:37;;;;;;;18.35;7.38;;;12.70;99.90;;;;;;5093760;28;20227;-79
2023/11/14 06:59:07;;;;;;;14.57;6.80;;;12.60;99.90;;;;;;5094314;28;20303;-80
2023/11/14 07:01:34;;;;;;;13.90;5.97;;;12.60;99.90;;;;;;5093827;28;20465;-79
2023/11/14 07:04:02;;;;;;;8.88;3.42;;;12.60;99.90;;;;;;5094213;28;20307;-79
2023/11/14 07:06:29;;;;;;;11.80;5.32;;;12.60;99.90;;;;;;5093696;28;20219;-79
2023/11/14 07:08:57;;;;;;;11.27;5.35;;;12.70;99.90;;;;;;5094132;28;20223;-80
2023/11/14 07:11:25;;;;;;;9.43;4.05;;;12.70;99.90;;;;;;5093319;28;20553;-80
2023/11/14 07:13:52;;;;;;;16.42;2.92;;;12.60;99.90;;;;;;5093689;28;20219;-79
2023/11/14 07:16:21;;;;;;;11.35;3.20;;;12.60;99.90;;;;;;5093404;28;20672;-80
2023/11/14 07:18:48;;;;;;;6.82;3.00;;;12.70;99.90;;;;;;5093361;28;20247;-79
2023/11/14 07:21:15;;;;;;;9.30;3.72;;;12.70;99.90;;;;;;5093868;28;20310;-79
2023/11/14 07:23:42;;;;;;;8.15;3.10;;;12.80;99.90;;;;;;5093750;28;20561;-79
2023/11/14 07:26:10;;;;;;;7.75;3.42;;;12.90;99.90;;;;;;5093898;28;20306;-80
2023/11/14 07:28:37;;;;;;;9.27;3.70;;;12.90;99.90;;;;;;5093568;28;20223;-80
2023/11/14 07:31:05;;;;;;;10.90;3.63;;;12.90;99.90;;;;;;5094071;28;20227;-79
2023/11/14 07:33:33;;;;;;;4.82;2.40;;;12.90;99.90;;;;;;5093351;28;20298;-80
2023/11/14 07:36:00;;;;;;;16.23;3.80;;;12.90;99.90;;;;;;5093893;28;20247;-80
2023/11/14 07:38:27;;;;;;;12.80;3.83;;;12.90;99.90;;;;;;5093277;28;20230;-80
2023/11/14 07:40:54;;;;;;;9.30;3.83;;;13.00;99.90;;;;;;5093623;28;20219;-79
2023/11/14 07:43:24;;;;;;;7.05;3.28;;;12.90;99.90;;;;;;5093875;28;20223;-79
2023/11/14 07:45:52;;;;;;;7.63;3.22;;;12.90;99.90;;;;;;5093804;28;20632;-79
2023/11/14 07:48:19;;;;;;;11.30;3.53;;;12.90;99.90;;;;;;5097090;28;20219;-80
2023/11/14 07:50:47;;;;;;;6.68;2.97;;;12.90;99.90;;;;;;5097492;28;20647;-79
2023/11/14 07:53:16;;;;;;;11.40;3.38;;;12.90;99.90;;;;;;5097510;28;20231;-81
2023/11/14 07:55:43;;;;;;;10.43;3.43;;;12.90;99.90;;;;;;5096920;28;20314;-81
2023/11/14 07:58:10;;;;;;;12.03;4.60;;;13.00;99.90;;;;;;5097180;28;20457;-81
2023/11/14 08:00:36;;;;;;;12.53;5.60;;;13.00;99.90;;;;;;5097201;28;20564;-81
2023/11/14 08:03:04;;;;;;;8.95;3.47;;;13.00;99.90;;;;;;5097365;28;20503;-79
2023/11/14 08:05:32;;;;;;;9.75;2.95;;;13.10;99.90;;;;;;5097050;28;20311;-80
2023/11/14 08:08:00;;;;;;;13.00;3.73;;;13.10;99.90;;;;;;5097566;28;20314;-80
2023/11/14 08:10:28;;;;;;;12.38;3.80;;;13.10;99.90;;;;;;5097425;28;20826;-79
2023/11/14 08:12:55;;;;;;;13.20;3.43;;;13.10;99.90;;;;;;5096880;28;20224;-80
2023/11/14 08:15:22;;;;;;;8.32;3.13;;;13.10;99.90;;;;;;5096780;28;20536;-80
2023/11/14 08:17:49;;;;;;;9.93;3.20;;;13.20;99.90;;;;;;5096026;28;20231;-80
2023/11/14 08:20:16;;;;;;;5.07;3.10;;;13.20;99.90;;;;;;5097401;28;20457;-80
2023/11/14 08:22:43;;;;;;;6.83;3.73;;;13.30;99.90;;;;;;5096554;28;20330;-80
2023/11/14 08:25:20;;;;;;;6.67;2.67;;;13.30;99.90;;;;;;5097133;28;20485;-79
2023/11/14 08:27:48;;;;;;;10.00;3.30;;;13.40;99.90;;;;;;5097034;28;20461;-79
2023/11/14 08:30:15;;;;;;;4.30;2.53;;;13.40;99.90;;;;;;5097102;28;21027;-79
2023/11/14 08:32:44;;;;;;;8.37;2.87;;;13.40;99.90;;;;;;5094346;28;20553;-79
2023/11/14 08:35:11;;;;;;;7.70;3.22;;;13.40;99.90;;;;;;5096987;28;20846;-79
2023/11/14 08:37:38;;;;;;;9.23;3.15;;;13.40;99.90;;;;;;5096657;28;20243;-79
2023/11/14 08:40:09;;;;;;;14.47;4.10;;;13.40;99.90;;;;;;5097060;28;20219;-80
2023/11/14 08:42:37;;;;;;;5.93;4.60;;;13.40;99.90;;;;;;5096262;28;20526;-80
2023/11/14 08:45:05;;;;;;;9.32;4.40;;;13.50;99.90;;;;;;5097046;28;20553;-80
2023/11/14 08:47:32;;;;;;;9.35;5.88;;;13.60;99.90;;;;;;5096737;28;20216;-80
2023/11/14 08:50:00;;;;;;;12.03;5.73;;;13.60;99.90;;;;;;5096550;28;20606;-80
2023/11/14 08:52:36;;;;;;;10.67;3.60;;;13.60;99.90;;;;;;5097516;28;20457;-78
2023/11/14 08:55:03;;;;;;;7.67;4.00;;;13.70;99.90;;;;;;5116443;28;20495;-78
2023/11/14 08:57:30;;;;;;;18.13;6.30;;;13.80;99.90;;;;;;5115737;28;20461;-78
2023/11/14 08:59:59;;;;;;;14.63;3.50;;;13.80;99.90;;;;;;5115557;28;20480;-78
2023/11/14 09:02:26;;;;;;;13.13;4.70;;;13.80;99.90;;;;;;5116530;28;20537;-80
2023/11/14 09:04:53;;;;;;;7.07;4.13;;;14.00;99.90;;;;;;5117278;28;20506;-80
2023/11/14 09:07:20;;;;;;;22.03;13.67;;;14.00;99.90;;;;;;5116397;28;20471;-80
2023/11/14 09:09:48;;;;;;;20.70;10.10;;;14.10;99.90;;;;;;5116924;28;20488;-80
2023/11/14 09:12:14;;;;;;;14.80;9.30;;;14.10;99.90;;;;;;5116846;28;20469;-80
2023/11/14 09:14:41;;;;;;;10.23;4.73;;;14.20;99.90;;;;;;5116477;28;20547;-80
2023/11/14 09:17:10;;;;;;;12.17;5.43;;;14.20;99.90;;;;;;5116789;28;20547;-79
2023/11/14 09:19:37;;;;;;;15.37;6.60;;;14.30;99.90;;;;;;5116403;28;20469;-79
2023/11/14 09:22:07;;;;;;;14.83;7.20;;;14.30;99.90;;;;;;5115548;28;20491;-80
2023/11/14 09:24:34;;;;;;;15.73;4.43;;;14.30;99.90;;;;;;5115065;28;20479;-80
2023/11/14 09:27:00;;;;;;;17.10;4.20;;;14.30;99.90;;;;;;5115785;28;20461;-79
2023/11/14 09:29:27;;;;;;;13.60;5.60;;;14.30;99.90;;;;;;5115331;28;20548;-79
2023/11/14 09:31:54;;;;;;;12.83;6.03;;;14.40;99.90;;;;;;5115692;28;20813;-79
2023/11/14 09:34:22;;;;;;;13.70;5.33;;;14.40;99.90;;;;;;5115518;28;20868;-80
2023/11/14 09:36:50;;;;;;;9.47;5.67;;;14.40;99.90;;;;;;5115507;28;20492;-81
2023/11/14 09:39:18;;;;;;;11.73;5.23;;;14.40;99.90;;;;;;5114319;28;20530;-81
2023/11/14 09:41:45;;;;;;;10.60;4.03;;;14.50;99.90;;;;;;5115472;28;20964;-80
2023/11/14 09:44:14;;;;;;;9.73;4.80;;;14.50;99.90;;;;;;5114609;28;20519;-81
2023/11/14 09:46:42;;;;;;;8.87;4.90;;;14.50;99.90;;;;;;5115460;28;20461;-81
2023/11/14 09:49:09;;;;;;;10.57;3.77;;;14.50;99.90;;;;;;5114474;28;20465;-81
2023/11/14 09:51:38;;;;;;;6.37;2.80;;;14.50;99.90;;;;;;5115341;28;20965;-81
2023/11/14 09:54:07;;;;;;;13.50;4.93;;;14.60;99.90;;;;;;5114266;28;20551;-81
2023/11/14 09:56:34;;;;;;;9.23;2.70;;;14.50;99.90;;;;;;5115306;28;20496;-81
2023/11/14 09:59:02;;;;;;;10.30;3.33;;;14.50;99.90;;;;;;5115122;28;20465;-80
2023/11/14 10:01:29;;;;;;;11.73;4.40;;;14.60;99.90;;;;;;5114563;28;20548;-79
2023/11/14 10:03:56;;;;;;;11.50;4.20;;;14.60;99.90;;;;;;5115162;28;20758;-79
2023/11/14 10:06:22;;;;;;;8.20;3.40;;;14.60;99.90;;;;;;5114553;28;20468;-80
2023/11/14 10:08:52;;;;;;;11.37;3.97;;;14.60;99.90;;;;;;5114724;28;20464;-79
2023/11/14 10:11:19;;;;;;;8.83;3.00;;;14.60;99.90;;;;;;5113469;28;20794;-80
2023/11/14 10:13:47;;;;;;;8.50;3.17;;;14.60;99.90;;;;;;5114607;28;20969;-81
2023/11/14 10:16:20;;;;;;;8.63;3.00;;;14.60;99.90;;;;;;5114297;28;21061;-81
2023/11/14 10:18:48;;;;;;;7.23;2.70;;;14.50;99.90;;;;;;5114901;28;20498;-79
2023/11/14 10:21:29;;;;;;;10.40;3.37;;;14.60;99.90;;;;;;5114000;28;20499;-79
2023/11/14 10:23:58;;;;;;;11.63;3.03;;;14.60;99.90;;;;;;5114616;28;21009;-80
2023/11/14 10:26:26;;;;;;;9.93;4.47;;;14.70;99.90;;;;;;5113949;28;20521;-81
2023/11/14 10:28:54;;;;;;;11.67;4.20;;;14.70;99.90;;;;;;5114204;28;20470;-79
2023/11/14 10:31:36;;;;;;;9.10;3.40;;;14.80;99.90;;;;;;5113682;28;20547;-79
2023/11/14 10:34:04;;;;;;;16.10;4.80;;;14.80;99.90;;;;;;5114547;28;21010;-80
2023/11/14 10:36:45;;;;;;;9.87;4.10;;;14.80;99.90;;;;;;5112921;28;20456;-79
2023/11/14 10:39:13;;;;;;;9.47;2.77;;;14.90;99.90;;;;;;5113794;28;20997;-80
2023/11/14 10:41:41;;;;;;;9.60;3.27;;;14.90;99.90;;;;;;5114405;28;20476;-80
2023/11/14 10:44:09;;;;;;;11.97;4.40;;;14.90;99.90;;;;;;5113626;28;20465;-79
2023/11/14 10:46:36;;;;;;;6.60;3.60;;;14.90;99.90;;;;;;5113904;28;21021;-81
2023/11/14 10:49:08;;;;;;;5.50;2.90;;;14.90;99.90;;;;;;5114283;28;20863;-80
2023/11/14 10:51:36;;;;;;;9.63;4.70;;;15.00;99.90;;;;;;5113442;28;20472;-80
2023/11/14 10:54:06;;;;;;;8.73;2.90;;;15.10;99.90;;;;;;5114228;28;20547;-80
2023/11/14 10:56:38;;;;;;;12.93;3.83;;;15.10;99.90;;;;;;5113884;28;20471;-80
2023/11/14 10:59:09;;;;;;;14.13;5.20;;;15.10;99.90;;;;;;5113792;28;20612;-81
2023/11/14 11:01:36;;;;;;;11.47;3.90;;;15.20;99.90;;;;;;5113495;28;20526;-81
2023/11/14 11:04:05;;;;;;;9.83;4.73;;;15.20;99.90;;;;;;5114245;28;20865;-79
2023/11/14 11:06:33;;;;;;;15.63;5.10;;;15.20;99.90;;;;;;5113509;28;20468;-79
2023/11/14 11:09:00;;;;;;;9.87;4.43;;;15.20;99.90;;;;;;5113878;28;20464;-79
2023/11/14 11:11:32;;;;;;;12.97;6.37;;;15.30;99.90;;;;;;5113324;28;20494;-79
2023/11/14 11:14:02;;;;;;;11.40;4.17;;;15.30;99.90;;;;;;5113607;28;20479;-79
2023/11/14 11:16:46;;;;;;;11.30;3.60;;;15.40;99.90;;;;;;5113381;28;20487;-79
2023/11/14 11:19:24;;;;;;;8.47;3.30;;;15.40;99.90;;;;;;5113620;28;20479;-79
2023/11/14 11:22:03;;;;;;;7.93;4.17;;;15.30;99.90;;;;;;5113354;28;20547;-80
2023/11/14 11:24:30;;;;;;;17.13;5.80;;;15.30;99.90;;;;;;5114226;28;20456;-80
2023/11/14 11:27:19;;;;;;;9.90;3.60;;;15.30;99.90;;;;;;5113304;28;20460;-79
2023/11/14 11:30:07;;;;;;;8.23;3.30;;;15.30;99.90;;;;;;5113099;28;20460;-80
2023/11/14 11:32:35;;;;;;;9.73;4.00;;;15.30;99.90;;;;;;5113743;28;20460;-79
2023/11/14 11:35:28;;;;;;;8.30;2.60;;;15.30;99.90;;;;;;5113305;28;20456;-79
2023/11/14 11:37:57;;;;;;;8.40;3.30;;;15.30;99.90;;;;;;5112395;28;20969;-79
2023/11/14 11:40:26;;;;;;;7.10;3.00;;;15.30;99.90;;;;;;5113717;28;20499;-80
2023/11/14 11:42:58;;;;;;;8.10;3.70;;;15.30;99.90;;;;;;5113329;28;20550;-80
2023/11/14 11:45:36;;;;;;;6.40;2.83;;;15.40;99.90;;;;;;5113492;28;20548;-79
2023/11/14 11:48:03;;;;;;;6.90;2.67;;;15.30;99.90;;;;;;5113232;28;20510;-79
2023/11/14 11:50:32;;;;;;;7.17;3.03;;;15.40;99.90;;;;;;5113512;28;20475;-78
2023/11/14 11:53:05;;;;;;;6.63;2.60;;;15.40;99.90;;;;;;5112575;28;20531;-79
2023/11/14 11:55:32;;;;;;;6.57;3.13;;;15.40;99.90;;;;;;5113155;28;20461;-79
2023/11/14 11:58:08;;;;;;;7.70;2.90;;;15.50;99.90;;;;;;5112703;28;20687;-80
2023/11/14 12:00:36;;;;;;;13.03;3.83;;;15.40;99.90;;;;;;5111319;28;20516;-80
2023/11/14 12:03:05;;;;;;;9.00;3.00;;;15.40;99.90;;;;;;5112969;28;20468;-80
2023/11/14 12:05:42;;;;;;;11.90;4.20;;;15.40;99.90;;;;;;5113377;28;20464;-80
2023/11/14 12:08:13;;;;;;;15.40;3.80;;;15.30;99.90;;;;;;5113092;28;20470;-80
2023/11/14 12:10:40;;;;;;;6.10;3.07;;;15.40;99.90;;;;;;5113132;28;20465;-80
2023/11/14 12:13:08;;;;;;;8.93;4.70;;;15.30;99.90;;;;;;5112599;28;20480;-79
2023/11/14 12:15:38;;;;;;;11.30;3.07;;;15.40;99.90;;;;;;5113302;28;20968;-78
2023/11/14 12:18:06;;;;;;;9.60;3.53;;;15.40;99.90;;;;;;5111598;28;20845;-78
2023/11/14 12:20:33;;;;;;;7.20;3.00;;;15.50;99.90;;;;;;5113336;28;20469;-80
2023/11/14 12:23:00;;;;;;;13.60;3.60;;;15.50;99.90;;;;;;5112612;28;20548;-80
2023/11/14 12:25:27;;;;;;;6.33;2.90;;;15.40;99.90;;;;;;5113160;28;20545;-80
2023/11/14 12:27:58;;;;;;;5.47;3.00;;;15.40;99.90;;;;;;5112592;28;20495;-80
2023/11/14 12:30:26;;;;;;;11.70;4.43;;;15.50;99.90;;;;;;5113498;28;20952;-78
2023/11/14 12:33:05;;;;;;;12.67;3.63;;;15.50;99.90;;;;;;5112727;28;20965;-78
2023/11/14 12:35:50;;;;;;;6.90;3.80;;;15.50;99.90;;;;;;5116509;28;20473;-80
2023/11/14 12:38:28;;;;;;;8.77;3.33;;;15.40;99.90;;;;;;5116252;28;20444;-78
2023/11/14 12:41:24;;;;;;;11.70;3.67;;;15.40;99.90;;;;;;5116217;28;20468;-78
2023/11/14 12:43:53;;;;;;;8.33;3.67;;;15.40;99.90;;;;;;5116608;28;20468;-78
2023/11/14 12:46:27;;;;;;;9.07;3.20;;;15.40;99.90;;;;;;5116122;28;20453;-78
2023/11/14 12:49:10;;;;;;;6.83;2.80;;;15.40;99.90;;;;;;5116765;28;20539;-77
2023/11/14 12:51:37;;;;;;;9.87;3.57;;;15.50;99.90;;;;;;5116260;28;20469;-78
2023/11/14 12:54:06;;;;;;;7.90;3.07;;;15.40;99.90;;;;;;5116268;28;20530;-79